Time;durP1;ratioP1;P1;durP2;ratioP2;P2;SDS_P1;SDS_P2;PMS_P1;PMS_P2;Temp;Humidity;BMP_temperature;BMP_pressure;BME280_temperature;BME280_humidity;BME280_pressure;Samples;Min_cycle;Max_cycle;Signal;HPM_P1;HPM_P2
2022/10/15 00:01:31;;;;;;;;;6.75;4.00;;;;;;;;5042043;28;62059;-79
2022/10/15 00:03:58;;;;;;;;;5.25;3.00;;;;;;;;5042209;28;61799;-79
2022/10/15 00:06:24;;;;;;;;;4.00;4.00;;;;;;;;5042583;28;61905;-79
2022/10/15 00:08:49;;;;;;;;;6.00;3.75;;;;;;;;5042059;28;62151;-79
2022/10/15 00:11:16;;;;;;;;;4.00;3.00;;;;;;;;5041772;28;62575;-79
2022/10/15 00:13:42;;;;;;;;;5.00;4.00;;;;;;;;5023294;28;62136;-79
2022/10/15 00:16:09;;;;;;;;;3.50;3.00;;;;;;;;5042263;28;61711;-79
2022/10/15 00:18:35;;;;;;;;;4.00;2.75;;;;;;;;5041896;28;61910;-79
2022/10/15 00:21:00;;;;;;;;;3.50;3.50;;;;;;;;5023340;28;63565;-79
2022/10/15 00:23:25;;;;;;;;;6.00;2.75;;;;;;;;5042349;28;61806;-79
2022/10/15 00:25:59;;;;;;;;;3.25;3.25;;;;;;;;5041781;28;61859;-79
2022/10/15 00:28:25;;;;;;;;;3.75;3.75;;;;;;;;5042018;28;61840;-79
2022/10/15 00:30:50;;;;;;;;;2.50;2.50;;;;;;;;5040889;28;61725;-79
2022/10/15 00:33:16;;;;;;;;;6.00;4.00;;;;;;;;5024051;28;61816;-79
2022/10/15 00:35:42;;;;;;;;;3.00;3.00;;;;;;;;5041660;28;61758;-79
2022/10/15 00:38:07;;;;;;;;;10.00;4.00;;;;;;;;5042145;28;61743;-79
2022/10/15 00:40:32;;;;;;;;;4.00;4.00;;;;;;;;5022839;28;64826;-79
2022/10/15 00:42:58;;;;;;;;;4.75;4.75;;;;;;;;5041635;28;61759;-79
2022/10/15 00:45:23;;;;;;;;;5.50;4.75;;;;;;;;5023788;28;61735;-79
2022/10/15 00:47:49;;;;;;;;;5.00;5.00;;;;;;;;5023946;28;61817;-79
2022/10/15 00:50:19;;;;;;;;;4.00;3.25;;;;;;;;5040755;28;61851;-79
2022/10/15 00:53:05;;;;;;;;;6.50;3.75;;;;;;;;5041428;28;62133;-79
2022/10/15 00:55:35;;;;;;;;;7.00;5.25;;;;;;;;5023105;28;61786;-79
2022/10/15 00:58:04;;;;;;;;;4.50;4.00;;;;;;;;5041521;28;61972;-79
2022/10/15 01:00:29;;;;;;;;;4.75;4.00;;;;;;;;5040736;28;61825;-78
2022/10/15 01:02:54;;;;;;;;;4.50;4.50;;;;;;;;5044623;28;62004;-79
2022/10/15 01:05:20;;;;;;;;;5.50;4.75;;;;;;;;5042551;28;61768;-78
2022/10/15 01:07:46;;;;;;;;;4.50;3.00;;;;;;;;5041616;28;61672;-79
2022/10/15 01:10:11;;;;;;;;;3.50;3.50;;;;;;;;5040903;28;61924;-78
2022/10/15 01:12:36;;;;;;;;;4.50;3.25;;;;;;;;5023438;28;61966;-78
2022/10/15 01:15:06;;;;;;;;;5.00;4.00;;;;;;;;5041084;28;61818;-78
2022/10/15 01:17:37;;;;;;;;;3.00;3.00;;;;;;;;5041898;28;61849;-78
2022/10/15 01:20:20;;;;;;;;;4.25;3.00;;;;;;;;5040158;28;61842;-79
2022/10/15 01:22:52;;;;;;;;;2.75;2.75;;;;;;;;5042144;28;61703;-78
2022/10/15 01:25:26;;;;;;;;;5.25;3.75;;;;;;;;5044654;28;61890;-78
2022/10/15 01:27:55;;;;;;;;;4.50;2.75;;;;;;;;5044685;28;61854;-78
2022/10/15 01:30:20;;;;;;;;;3.75;3.00;;;;;;;;5043929;28;63053;-78
2022/10/15 01:33:04;;;;;;;;;3.50;3.50;;;;;;;;5044543;28;61718;-78
2022/10/15 01:35:48;;;;;;;;;3.00;3.00;;;;;;;;5026557;28;62117;-78
2022/10/15 01:38:13;;;;;;;;;3.00;3.00;;;;;;;;5044881;28;61633;-78
2022/10/15 01:40:38;;;;;;;;;1.00;1.00;;;;;;;;5043591;28;61779;-78
2022/10/15 01:43:07;;;;;;;;;2.25;1.50;;;;;;;;5026286;28;61776;-78
2022/10/15 01:45:38;;;;;;;;;1.75;1.75;;;;;;;;5026522;28;61918;-78
2022/10/15 01:48:10;;;;;;;;;1.50;1.50;;;;;;;;5026627;28;61794;-78
2022/10/15 01:50:39;;;;;;;;;2.50;1.00;;;;;;;;5043644;28;63590;-78
2022/10/15 01:53:06;;;;;;;;;4.00;1.75;;;;;;;;5025889;28;61804;-79
2022/10/15 01:55:32;;;;;;;;;3.00;1.00;;;;;;;;5044325;28;61840;-79
2022/10/15 01:57:59;;;;;;;;;2.00;1.25;;;;;;;;5044105;28;61791;-78
2022/10/15 02:00:24;;;;;;;;;1.00;0.00;;;;;;;;5042049;28;64580;-79
2022/10/15 02:02:49;;;;;;;;;1.25;1.00;;;;;;;;5044301;28;61930;-78
2022/10/15 02:05:18;;;;;;;;;0.50;0.50;;;;;;;;5044061;28;61864;-78
2022/10/15 02:07:46;;;;;;;;;1.00;1.00;;;;;;;;5026472;28;61750;-78
2022/10/15 02:10:21;;;;;;;;;2.00;1.00;;;;;;;;5043212;28;62680;-78
2022/10/15 02:13:21;;;;;;;;;2.00;1.00;;;;;;;;5043975;28;61681;-78
2022/10/15 02:16:01;;;;;;;;;1.00;1.00;;;;;;;;5001459;28;61726;-78
2022/10/15 02:18:44;;;;;;;;;1.00;1.00;;;;;;;;5001632;28;61832;-78
2022/10/15 02:21:12;;;;;;;;;1.00;1.00;;;;;;;;5001072;28;62062;-78
2022/10/15 02:23:51;;;;;;;;;1.50;0.00;;;;;;;;5001601;28;61912;-78
2022/10/15 02:26:17;;;;;;;;;0.00;0.00;;;;;;;;5001493;28;62135;-78
2022/10/15 02:28:45;;;;;;;;;1.00;1.00;;;;;;;;5001463;28;61908;-78
2022/10/15 02:31:12;;;;;;;;;1.50;0.00;;;;;;;;5000517;28;61884;-79
2022/10/15 02:33:38;;;;;;;;;0.33;0.33;;;;;;;;5000631;28;61805;-79
2022/10/15 02:36:03;;;;;;;;;0.00;0.00;;;;;;;;5000670;28;61880;-79
2022/10/15 02:38:31;;;;;;;;;1.00;1.00;;;;;;;;5001300;28;62213;-79
2022/10/15 02:40:56;;;;;;;;;1.00;1.00;;;;;;;;5000797;28;61921;-79
2022/10/15 02:43:22;;;;;;;;;1.00;1.00;;;;;;;;5001247;28;61969;-79
2022/10/15 02:45:47;;;;;;;;;0.00;0.00;;;;;;;;5001104;28;62015;-79
2022/10/15 02:48:13;;;;;;;;;1.25;1.25;;;;;;;;5001318;28;61984;-79
2022/10/15 02:50:38;;;;;;;;;0.00;0.00;;;;;;;;5036766;28;61909;-79
2022/10/15 02:53:04;;;;;;;;;0.00;0.00;;;;;;;;5024772;28;61925;-78
2022/10/15 02:55:29;;;;;;;;;1.75;0.50;;;;;;;;5043730;28;61968;-78
2022/10/15 02:57:55;;;;;;;;;0.50;0.50;;;;;;;;5043783;28;61794;-78
2022/10/15 03:00:20;;;;;;;;;0.00;0.00;;;;;;;;5024234;28;63704;-78
2022/10/15 03:02:45;;;;;;;;;1.25;0.00;;;;;;;;5025600;28;61769;-80
2022/10/15 03:05:11;;;;;;;;;0.33;0.33;;;;;;;;5042830;28;61772;-80
2022/10/15 03:07:36;;;;;;;;;0.00;0.00;;;;;;;;5043420;28;61818;-79
2022/10/15 03:10:01;;;;;;;;;0.00;0.00;;;;;;;;5042786;28;61966;-79
2022/10/15 03:12:26;;;;;;;;;1.00;1.00;;;;;;;;5043071;28;61806;-80
2022/10/15 03:14:52;;;;;;;;;0.00;0.00;;;;;;;;5043190;28;61889;-80
2022/10/15 03:17:17;;;;;;;;;0.00;0.00;;;;;;;;5043514;28;61847;-80
2022/10/15 03:19:43;;;;;;;;;0.50;0.50;;;;;;;;5042263;28;62821;-79
2022/10/15 03:22:08;;;;;;;;;0.00;0.00;;;;;;;;5043022;28;61858;-78
2022/10/15 03:24:33;;;;;;;;;0.00;0.00;;;;;;;;5043387;28;61876;-80
2022/10/15 03:26:58;;;;;;;;;0.00;0.00;;;;;;;;5025289;28;61943;-80
2022/10/15 03:29:23;;;;;;;;;1.00;0.00;;;;;;;;5042014;28;62557;-78
2022/10/15 03:31:49;;;;;;;;;0.00;0.00;;;;;;;;5042902;28;61821;-80
2022/10/15 03:34:14;;;;;;;;;0.00;0.00;;;;;;;;5042975;28;61838;-80
2022/10/15 03:36:41;;;;;;;;;0.00;0.00;;;;;;;;5025149;28;62309;-80
2022/10/15 03:39:07;;;;;;;;;0.00;0.00;;;;;;;;5024019;28;63344;-80
2022/10/15 03:41:32;;;;;;;;;0.00;0.00;;;;;;;;5042466;28;61741;-80
2022/10/15 03:44:01;;;;;;;;;0.00;0.00;;;;;;;;5042576;28;61675;-79
2022/10/15 03:46:27;;;;;;;;;0.00;0.00;;;;;;;;5042251;28;61791;-80
2022/10/15 03:48:52;;;;;;;;;1.00;0.00;;;;;;;;5023815;28;63700;-80
2022/10/15 03:51:17;;;;;;;;;0.25;0.00;;;;;;;;5041828;28;62047;-80
2022/10/15 03:53:42;;;;;;;;;0.00;0.00;;;;;;;;5024584;28;61827;-79
2022/10/15 03:56:07;;;;;;;;;0.00;0.00;;;;;;;;5043112;28;61707;-79
2022/10/15 03:58:33;;;;;;;;;0.00;0.00;;;;;;;;5023649;28;63755;-80
2022/10/15 04:00:58;;;;;;;;;0.00;0.00;;;;;;;;5024208;28;61772;-80
2022/10/15 04:03:23;;;;;;;;;1.50;1.00;;;;;;;;5042276;28;61946;-79
2022/10/15 04:05:50;;;;;;;;;0.00;0.00;;;;;;;;5042453;28;61802;-79
2022/10/15 04:08:15;;;;;;;;;0.00;0.00;;;;;;;;5023484;28;64609;-80
2022/10/15 04:10:40;;;;;;;;;0.50;0.00;;;;;;;;5024222;28;62001;-79
2022/10/15 04:13:06;;;;;;;;;0.00;0.00;;;;;;;;5042355;28;61783;-80
2022/10/15 04:15:31;;;;;;;;;0.00;0.00;;;;;;;;5024125;28;61828;-79
2022/10/15 04:17:56;;;;;;;;;0.00;0.00;;;;;;;;5041857;28;62817;-79
2022/10/15 04:20:22;;;;;;;;;0.00;0.00;;;;;;;;5023368;28;61946;-79
2022/10/15 04:22:47;;;;;;;;;0.00;0.00;;;;;;;;5042222;28;61911;-79
2022/10/15 04:25:12;;;;;;;;;0.50;0.00;;;;;;;;5042327;28;62083;-79
2022/10/15 04:27:38;;;;;;;;;0.00;0.00;;;;;;;;5023191;28;64077;-78
2022/10/15 04:30:04;;;;;;;;;0.00;0.00;;;;;;;;5041987;28;62031;-79
2022/10/15 04:32:29;;;;;;;;;0.00;0.00;;;;;;;;5041888;28;61964;-79
2022/10/15 04:34:54;;;;;;;;;0.00;0.00;;;;;;;;5042000;28;61729;-79
2022/10/15 04:37:19;;;;;;;;;0.00;0.00;;;;;;;;5041369;28;62694;-78
2022/10/15 04:39:45;;;;;;;;;1.00;0.00;;;;;;;;5041674;28;61683;-78
2022/10/15 04:42:10;;;;;;;;;0.00;0.00;;;;;;;;5024016;28;61860;-79
2022/10/15 04:44:35;;;;;;;;;1.25;0.00;;;;;;;;5023868;28;62220;-78
2022/10/15 04:47:01;;;;;;;;;0.00;0.00;;;;;;;;5022978;28;64721;-78
2022/10/15 04:49:26;;;;;;;;;1.00;1.00;;;;;;;;5040866;28;61832;-79
2022/10/15 04:51:53;;;;;;;;;2.00;1.00;;;;;;;;5041574;28;61958;-79
2022/10/15 04:54:19;;;;;;;;;1.00;1.00;;;;;;;;5023659;28;62138;-79
2022/10/15 04:56:50;;;;;;;;;0.00;0.00;;;;;;;;5041111;28;61749;-78
2022/10/15 04:59:15;;;;;;;;;0.50;0.50;;;;;;;;5026632;28;61820;-79
2022/10/15 05:01:40;;;;;;;;;2.00;0.00;;;;;;;;5027081;28;62029;-78
2022/10/15 05:04:06;;;;;;;;;0.00;0.00;;;;;;;;5049721;28;61850;-78
2022/10/15 05:06:31;;;;;;;;;0.25;0.00;;;;;;;;5044633;28;62973;-79
2022/10/15 05:08:56;;;;;;;;;1.25;0.00;;;;;;;;5045333;28;61870;-78
2022/10/15 05:11:23;;;;;;;;;0.00;0.00;;;;;;;;5045336;28;61931;-79
2022/10/15 05:13:49;;;;;;;;;0.00;0.00;;;;;;;;5027416;28;61991;-79
2022/10/15 05:16:18;;;;;;;;;0.00;0.00;;;;;;;;5026123;28;63691;-79
2022/10/15 05:18:44;;;;;;;;;0.00;0.00;;;;;;;;5026411;28;61707;-79
2022/10/15 05:21:10;;;;;;;;;0.00;0.00;;;;;;;;5045178;28;61838;-79
2022/10/15 05:23:36;;;;;;;;;0.00;0.00;;;;;;;;5044759;28;61843;-78
2022/10/15 05:26:12;;;;;;;;;0.00;0.00;;;;;;;;5044439;28;61739;-79
2022/10/15 05:28:37;;;;;;;;;0.00;0.00;;;;;;;;5044652;28;61917;-78
2022/10/15 05:31:06;;;;;;;;;0.00;0.00;;;;;;;;5026715;28;61775;-79
2022/10/15 05:33:31;;;;;;;;;0.00;0.00;;;;;;;;5026925;28;61839;-79
2022/10/15 05:35:56;;;;;;;;;0.00;0.00;;;;;;;;5044048;28;62627;-79
2022/10/15 05:38:21;;;;;;;;;1.00;0.00;;;;;;;;5045000;28;61843;-79
2022/10/15 05:40:50;;;;;;;;;0.00;0.00;;;;;;;;5044671;28;61768;-79
2022/10/15 05:43:15;;;;;;;;;0.00;0.00;;;;;;;;5027274;28;62010;-78
2022/10/15 05:45:40;;;;;;;;;0.00;0.00;;;;;;;;5043385;28;61729;-78
2022/10/15 05:48:06;;;;;;;;;0.00;0.00;;;;;;;;5044465;28;61877;-79
2022/10/15 05:50:31;;;;;;;;;0.00;0.00;;;;;;;;5044359;28;61926;-79
2022/10/15 05:52:57;;;;;;;;;0.00;0.00;;;;;;;;5044336;28;61834;-79
2022/10/15 05:55:22;;;;;;;;;0.00;0.00;;;;;;;;5043951;28;63011;-78
2022/10/15 05:57:47;;;;;;;;;0.00;0.00;;;;;;;;5044212;28;61886;-78
2022/10/15 06:00:13;;;;;;;;;1.00;0.00;;;;;;;;5044541;28;61815;-79
2022/10/15 06:02:38;;;;;;;;;0.00;0.00;;;;;;;;5044275;28;61945;-79
2022/10/15 06:05:05;;;;;;;;;0.00;0.00;;;;;;;;5028745;28;64785;-79
2022/10/15 06:07:31;;;;;;;;;0.00;0.00;;;;;;;;5044607;28;61727;-79
2022/10/15 06:09:56;;;;;;;;;0.00;0.00;;;;;;;;5043767;28;62085;-79
2022/10/15 06:12:21;;;;;;;;;0.00;0.00;;;;;;;;5026609;28;62058;-79
2022/10/15 06:14:46;;;;;;;;;0.00;0.00;;;;;;;;5025184;28;63583;-79
2022/10/15 06:17:12;;;;;;;;;1.00;0.00;;;;;;;;5043856;28;61901;-77
2022/10/15 06:19:37;;;;;;;;;1.00;0.00;;;;;;;;5043545;28;61776;-77
2022/10/15 06:22:02;;;;;;;;;0.00;0.00;;;;;;;;5043871;28;61691;-77
2022/10/15 06:24:27;;;;;;;;;1.00;0.00;;;;;;;;5043220;28;62038;-77
2022/10/15 06:26:53;;;;;;;;;0.00;0.00;;;;;;;;5043885;28;61704;-77
2022/10/15 06:29:18;;;;;;;;;0.00;0.00;;;;;;;;5043702;28;61616;-77
2022/10/15 06:31:43;;;;;;;;;0.00;0.00;;;;;;;;5043648;28;62098;-77
2022/10/15 06:34:08;;;;;;;;;0.00;0.00;;;;;;;;5024827;28;65003;-77
2022/10/15 06:36:34;;;;;;;;;0.00;0.00;;;;;;;;5043705;28;61674;-78
2022/10/15 06:38:59;;;;;;;;;0.00;0.00;;;;;;;;5043124;28;61636;-79
2022/10/15 06:41:24;;;;;;;;;1.33;0.33;;;;;;;;5025398;28;62085;-76
2022/10/15 06:43:49;;;;;;;;;1.33;0.33;;;;;;;;5042678;28;61874;-78
2022/10/15 06:46:15;;;;;;;;;1.67;0.67;;;;;;;;5043237;28;61708;-80
2022/10/15 06:48:40;;;;;;;;;0.00;0.00;;;;;;;;5047307;28;62126;-79
2022/10/15 06:51:06;;;;;;;;;0.67;0.00;;;;;;;;5028357;28;62259;-80
2022/10/15 06:53:31;;;;;;;;;0.00;0.00;;;;;;;;5043051;28;62002;-80
2022/10/15 06:55:57;;;;;;;;;0.33;0.00;;;;;;;;5025751;28;61827;-80
2022/10/15 06:58:23;;;;;;;;;0.00;0.00;;;;;;;;5043918;28;61874;-80
2022/10/15 07:00:48;;;;;;;;;0.00;0.00;;;;;;;;5025168;28;61788;-77
2022/10/15 07:03:13;;;;;;;;;0.00;0.00;;;;;;;;5025873;28;63687;-80
2022/10/15 07:05:39;;;;;;;;;0.00;0.00;;;;;;;;5063663;28;62136;-77
2022/10/15 07:08:04;;;;;;;;;0.00;0.00;;;;;;;;5045729;28;62150;-79
2022/10/15 07:10:29;;;;;;;;;0.00;0.00;;;;;;;;5051896;28;61814;-80
2022/10/15 07:12:55;;;;;;;;;0.00;0.00;;;;;;;;5042836;28;61866;-79
2022/10/15 07:15:20;;;;;;;;;0.00;0.00;;;;;;;;5025171;28;61819;-79
2022/10/15 07:17:47;;;;;;;;;0.00;0.00;;;;;;;;5043535;28;62069;-79
2022/10/15 07:20:12;;;;;;;;;1.00;0.00;;;;;;;;5042610;28;61789;-79
2022/10/15 07:22:38;;;;;;;;;0.00;0.00;;;;;;;;5042786;28;62063;-79
2022/10/15 07:25:03;;;;;;;;;0.00;0.00;;;;;;;;5025056;28;61891;-79
2022/10/15 07:27:28;;;;;;;;;0.00;0.00;;;;;;;;5025324;28;61827;-79
2022/10/15 07:29:54;;;;;;;;;0.00;0.00;;;;;;;;5043090;28;61922;-80
2022/10/15 07:32:19;;;;;;;;;0.00;0.00;;;;;;;;5042695;28;61762;-79
2022/10/15 07:34:44;;;;;;;;;0.00;0.00;;;;;;;;5030074;28;62194;-78
2022/10/15 07:37:09;;;;;;;;;0.00;0.00;;;;;;;;5048194;28;62203;-79
2022/10/15 07:39:35;;;;;;;;;1.00;0.00;;;;;;;;5043338;28;61685;-77
2022/10/15 07:42:00;;;;;;;;;0.00;0.00;;;;;;;;5024425;28;63592;-77
2022/10/15 07:44:25;;;;;;;;;0.00;0.00;;;;;;;;5042530;28;62089;-77
2022/10/15 07:46:51;;;;;;;;;0.00;0.00;;;;;;;;5043323;28;61841;-76
2022/10/15 07:49:16;;;;;;;;;0.00;0.00;;;;;;;;5042766;28;61837;-76
2022/10/15 07:51:41;;;;;;;;;1.33;0.00;;;;;;;;5024788;28;64946;-77
2022/10/15 07:54:07;;;;;;;;;0.00;0.00;;;;;;;;5052459;28;62161;-77
2022/10/15 07:56:32;;;;;;;;;0.00;0.00;;;;;;;;5053434;28;62158;-76
2022/10/15 07:58:57;;;;;;;;;0.00;0.00;;;;;;;;5051455;28;61938;-78
2022/10/15 08:01:23;;;;;;;;;0.00;0.00;;;;;;;;5045295;28;61838;-78
2022/10/15 08:03:48;;;;;;;;;0.00;0.00;;;;;;;;5053158;28;61947;-78
2022/10/15 08:06:14;;;;;;;;;0.00;0.00;;;;;;;;5043848;28;61843;-78
2022/10/15 08:08:39;;;;;;;;;1.33;0.00;;;;;;;;5043098;28;61725;-78
2022/10/15 08:11:08;;;;;;;;;0.00;0.00;;;;;;;;5061947;28;61800;-79
2022/10/15 08:13:34;;;;;;;;;0.00;0.00;;;;;;;;5044197;28;62001;-78
2022/10/15 08:15:59;;;;;;;;;0.00;0.00;;;;;;;;5062498;28;61742;-78
2022/10/15 08:18:25;;;;;;;;;0.00;0.00;;;;;;;;5043834;28;62086;-78
2022/10/15 08:20:51;;;;;;;;;0.00;0.00;;;;;;;;5062139;28;62772;-78
2022/10/15 08:23:16;;;;;;;;;0.00;0.00;;;;;;;;5044032;28;61758;-78
2022/10/15 08:25:41;;;;;;;;;0.00;0.00;;;;;;;;5062672;28;61887;-79
2022/10/15 08:28:09;;;;;;;;;0.00;0.00;;;;;;;;5062730;28;62119;-78
2022/10/15 08:30:34;;;;;;;;;0.00;0.00;;;;;;;;5061681;28;61751;-78
2022/10/15 08:33:00;;;;;;;;;0.00;0.00;;;;;;;;5062614;28;61762;-79
2022/10/15 08:35:25;;;;;;;;;0.00;0.00;;;;;;;;5062320;28;61774;-78
2022/10/15 08:37:52;;;;;;;;;0.00;0.00;;;;;;;;5062758;28;61738;-79
2022/10/15 08:40:20;;;;;;;;;0.00;0.00;;;;;;;;5061427;28;63582;-78
2022/10/15 08:42:45;;;;;;;;;0.00;0.00;;;;;;;;5062333;28;61904;-79
2022/10/15 08:45:13;;;;;;;;;1.25;0.50;;;;;;;;5043807;28;61984;-78
2022/10/15 08:47:42;;;;;;;;;0.00;0.00;;;;;;;;5044453;28;62029;-79
2022/10/15 08:50:16;;;;;;;;;0.00;0.00;;;;;;;;5061508;28;61808;-79
2022/10/15 08:52:43;;;;;;;;;0.00;0.00;;;;;;;;5043778;28;61771;-79
2022/10/15 08:55:13;;;;;;;;;0.00;0.00;;;;;;;;5061723;28;61904;-80
2022/10/15 08:57:48;;;;;;;;;0.00;0.00;;;;;;;;5044108;28;62104;-79
2022/10/15 09:00:13;;;;;;;;;1.00;0.00;;;;;;;;5061379;28;62014;-79
2022/10/15 09:02:42;;;;;;;;;0.00;0.00;;;;;;;;5061847;28;61787;-78
2022/10/15 09:05:14;;;;;;;;;0.00;0.00;;;;;;;;5061996;28;61993;-78
2022/10/15 09:07:46;;;;;;;;;0.33;0.00;;;;;;;;5043810;28;62110;-79
2022/10/15 09:10:17;;;;;;;;;0.00;0.00;;;;;;;;5043017;28;63661;-79
2022/10/15 09:13:03;;;;;;;;;0.00;0.00;;;;;;;;5043794;28;61778;-79
2022/10/15 09:15:31;;;;;;;;;0.00;0.00;;;;;;;;5061749;28;61912;-79
2022/10/15 09:17:56;;;;;;;;;0.00;0.00;;;;;;;;5043876;28;62300;-79
2022/10/15 09:20:40;;;;;;;;;0.00;0.00;;;;;;;;5060591;28;61798;-79
2022/10/15 09:23:12;;;;;;;;;0.00;0.00;;;;;;;;5043660;28;61990;-80
2022/10/15 09:25:40;;;;;;;;;0.00;0.00;;;;;;;;5061408;28;61929;-79
2022/10/15 09:28:10;;;;;;;;;0.00;0.00;;;;;;;;5061842;28;62075;-79
2022/10/15 09:30:42;;;;;;;;;0.00;0.00;;;;;;;;5042621;28;63734;-79
2022/10/15 09:33:26;;;;;;;;;0.00;0.00;;;;;;;;5043534;28;61981;-79
2022/10/15 09:35:57;;;;;;;;;0.00;0.00;;;;;;;;5061857;28;61976;-80
2022/10/15 09:38:40;;;;;;;;;1.00;0.00;;;;;;;;5061373;28;61750;-79
2022/10/15 09:41:06;;;;;;;;;0.00;0.00;;;;;;;;5061649;28;62937;-79
2022/10/15 09:43:35;;;;;;;;;0.00;0.00;;;;;;;;5061603;28;61798;-79
2022/10/15 09:46:03;;;;;;;;;0.67;0.67;;;;;;;;5025469;28;61843;-79
2022/10/15 09:48:31;;;;;;;;;0.33;0.33;;;;;;;;5042942;28;61996;-78
2022/10/15 09:51:03;;;;;;;;;0.00;0.00;;;;;;;;5024819;28;62291;-79
2022/10/15 09:53:31;;;;;;;;;0.00;0.00;;;;;;;;5051873;28;62056;-79
2022/10/15 09:56:20;;;;;;;;;0.00;0.00;;;;;;;;5034581;28;62973;-78
2022/10/15 09:58:51;;;;;;;;;0.00;0.00;;;;;;;;5043290;28;61844;-77
2022/10/15 10:01:21;;;;;;;;;0.33;0.00;;;;;;;;5033488;28;64236;-78
2022/10/15 10:03:50;;;;;;;;;0.00;0.00;;;;;;;;5048190;28;61845;-76
2022/10/15 10:06:16;;;;;;;;;0.00;0.00;;;;;;;;5025477;28;62333;-77
2022/10/15 10:08:55;;;;;;;;;0.00;0.00;;;;;;;;5042830;28;61902;-78
2022/10/15 10:11:21;;;;;;;;;0.00;0.00;;;;;;;;5042105;28;63032;-77
2022/10/15 10:13:46;;;;;;;;;0.00;0.00;;;;;;;;5023628;28;62058;-78
2022/10/15 10:16:13;;;;;;;;;0.00;0.00;;;;;;;;5044623;28;61952;-79
2022/10/15 10:18:39;;;;;;;;;0.00;0.00;;;;;;;;5034048;28;62240;-78
2022/10/15 10:21:25;;;;;;;;;0.00;0.00;;;;;;;;5029226;28;64551;-80
2022/10/15 10:23:50;;;;;;;;;0.00;0.00;;;;;;;;5029207;28;62200;-80
2022/10/15 10:26:16;;;;;;;;;0.00;0.00;;;;;;;;5048048;28;61735;-78
2022/10/15 10:28:56;;;;;;;;;0.00;0.00;;;;;;;;5030082;28;61815;-80
2022/10/15 10:31:31;;;;;;;;;0.00;0.00;;;;;;;;5047389;28;63544;-80
2022/10/15 10:33:59;;;;;;;;;0.00;0.00;;;;;;;;5046533;28;61995;-80
2022/10/15 10:36:29;;;;;;;;;0.00;0.00;;;;;;;;5045660;28;62231;-83
2022/10/15 10:39:01;;;;;;;;;0.00;0.00;;;;;;;;5029034;28;61990;-82
2022/10/15 10:41:46;;;;;;;;;0.00;0.00;;;;;;;;5049172;28;62859;-77
2022/10/15 10:44:18;;;;;;;;;0.00;0.00;;;;;;;;5050865;28;61829;-75
2022/10/15 10:46:43;;;;;;;;;0.00;0.00;;;;;;;;5032634;28;62126;-78
2022/10/15 10:49:09;;;;;;;;;0.00;0.00;;;;;;;;5033542;28;61912;-78
2022/10/15 10:51:45;;;;;;;;;0.00;0.00;;;;;;;;5052177;28;61976;-77
2022/10/15 10:54:13;;;;;;;;;2.00;0.00;;;;;;;;5054643;28;62056;-78
2022/10/15 10:56:42;;;;;;;;;0.00;0.00;;;;;;;;5062627;28;61649;-79
2022/10/15 10:59:19;;;;;;;;;0.00;0.00;;;;;;;;5063827;28;61702;-79
2022/10/15 11:01:45;;;;;;;;;0.33;0.00;;;;;;;;5062890;28;63956;-80
2022/10/15 11:04:23;;;;;;;;;0.00;0.00;;;;;;;;5044715;28;62190;-81
2022/10/15 11:06:57;;;;;;;;;0.00;0.00;;;;;;;;5063419;28;61871;-80
2022/10/15 11:09:32;;;;;;;;;0.00;0.00;;;;;;;;5063641;28;61884;-79
2022/10/15 11:12:00;;;;;;;;;1.33;0.00;;;;;;;;5062841;28;61878;-80
2022/10/15 11:14:31;;;;;;;;;0.00;0.00;;;;;;;;5045126;28;61759;-80
2022/10/15 11:17:05;;;;;;;;;0.00;0.00;;;;;;;;5052201;28;61767;-79
2022/10/15 11:19:40;;;;;;;;;0.00;0.00;;;;;;;;5048262;28;61771;-79
2022/10/15 11:22:22;;;;;;;;;0.00;0.00;;;;;;;;5047937;28;62295;-79
2022/10/15 11:24:50;;;;;;;;;0.00;0.00;;;;;;;;5047735;28;62139;-79
2022/10/15 11:27:26;;;;;;;;;0.33;0.33;;;;;;;;5044570;28;62088;-79
2022/10/15 11:29:54;;;;;;;;;0.00;0.00;;;;;;;;5039531;28;61843;-79
2022/10/15 11:32:26;;;;;;;;;0.00;0.00;;;;;;;;5035098;28;63195;-78
2022/10/15 11:35:14;;;;;;;;;1.00;0.00;;;;;;;;5026160;28;61981;-79
2022/10/15 11:37:59;;;;;;;;;0.00;0.00;;;;;;;;5007211;28;61931;-79
2022/10/15 11:40:35;;;;;;;;;0.00;0.00;;;;;;;;5039610;28;61881;-79
2022/10/15 11:43:00;;;;;;;;;0.00;0.00;;;;;;;;5018338;28;63791;-79
2022/10/15 11:45:25;;;;;;;;;0.00;0.00;;;;;;;;5033222;28;61835;-79
2022/10/15 11:47:54;;;;;;;;;0.00;0.00;;;;;;;;5028489;28;62218;-84
2022/10/15 11:50:36;;;;;;;;;0.00;0.00;;;;;;;;5044620;28;61908;-85
2022/10/15 11:53:07;;;;;;;;;0.00;0.00;;;;;;;;5033382;28;62361;-84
2022/10/15 11:55:56;;;;;;;;;0.00;0.00;;;;;;;;5038193;28;62109;-83
2022/10/15 11:58:24;;;;;;;;;0.00;0.00;;;;;;;;4973344;28;62136;-81
2022/10/15 12:00:51;;;;;;;;;0.00;0.00;;;;;;;;4971836;28;61996;-84
2022/10/15 12:03:20;;;;;;;;;0.33;0.00;;;;;;;;4971850;28;64961;-83
2022/10/15 12:05:53;;;;;;;;;0.00;0.00;;;;;;;;4973294;28;62044;-81
2022/10/15 12:08:20;;;;;;;;;0.00;0.00;;;;;;;;4942486;28;61815;-78
2022/10/15 12:10:57;;;;;;;;;0.00;0.00;;;;;;;;4942006;28;62149;-82
2022/10/15 12:13:22;;;;;;;;;0.00;0.00;;;;;;;;4954697;28;63610;-78
2022/10/15 12:16:06;;;;;;;;;0.00;0.00;;;;;;;;4956316;28;62285;-76
2022/10/15 12:18:38;;;;;;;;;0.00;0.00;;;;;;;;4955798;28;62390;-79
2022/10/15 12:21:23;;;;;;;;;1.00;0.00;;;;;;;;4954646;28;62182;-79
2022/10/15 12:23:49;;;;;;;;;0.00;0.00;;;;;;;;4955489;28;61798;-77
2022/10/15 12:26:26;;;;;;;;;0.00;0.00;;;;;;;;4953234;28;61995;-78
2022/10/15 12:28:53;;;;;;;;;0.00;0.00;;;;;;;;4973685;28;62208;-79
2022/10/15 12:31:19;;;;;;;;;1.00;0.00;;;;;;;;4957514;28;62333;-80
2022/10/15 12:33:52;;;;;;;;;0.00;0.00;;;;;;;;4956866;28;62295;-80
2022/10/15 12:36:17;;;;;;;;;0.00;0.00;;;;;;;;5024180;28;61786;-78
2022/10/15 12:38:54;;;;;;;;;1.00;0.00;;;;;;;;5037266;28;61772;-81
2022/10/15 12:41:19;;;;;;;;;0.00;0.00;;;;;;;;5038569;28;61913;-80
2022/10/15 12:44:03;;;;;;;;;0.00;0.00;;;;;;;;5019538;28;63528;-80
2022/10/15 12:46:36;;;;;;;;;0.00;0.00;;;;;;;;5020181;28;61853;-78
2022/10/15 12:49:22;;;;;;;;;0.00;0.00;;;;;;;;5039412;28;61873;-75
2022/10/15 12:51:47;;;;;;;;;0.00;0.00;;;;;;;;5006945;28;61856;-75
2022/10/15 12:54:31;;;;;;;;;0.00;0.00;;;;;;;;5002999;28;63489;-75
2022/10/15 12:56:56;;;;;;;;;0.00;0.00;;;;;;;;5022429;28;61757;-75
2022/10/15 12:59:32;;;;;;;;;0.00;0.00;;;;;;;;5004100;28;61837;-75
2022/10/15 13:01:57;;;;;;;;;0.67;0.00;;;;;;;;5021893;28;61844;-75
2022/10/15 13:04:34;;;;;;;;;0.00;0.00;;;;;;;;5051408;28;61914;-77
2022/10/15 13:07:03;;;;;;;;;0.00;0.00;;;;;;;;5062170;28;61769;-75
2022/10/15 13:09:29;;;;;;;;;0.00;0.00;;;;;;;;5057629;28;61738;-75
2022/10/15 13:11:55;;;;;;;;;0.00;0.00;;;;;;;;5038641;28;61913;-75
2022/10/15 13:14:32;;;;;;;;;0.00;0.00;;;;;;;;5039547;28;62051;-75
2022/10/15 13:17:00;;;;;;;;;0.00;0.00;;;;;;;;5039648;28;62138;-75
2022/10/15 13:19:39;;;;;;;;;0.00;0.00;;;;;;;;5024802;28;62335;-75
2022/10/15 13:22:05;;;;;;;;;0.00;0.00;;;;;;;;5043593;28;61879;-85
2022/10/15 13:24:49;;;;;;;;;0.00;0.00;;;;;;;;5035590;28;62799;-78
2022/10/15 13:27:20;;;;;;;;;0.00;0.00;;;;;;;;5024570;28;62029;-78
2022/10/15 13:29:59;;;;;;;;;0.00;0.00;;;;;;;;5044019;28;62024;-78
2022/10/15 13:32:26;;;;;;;;;0.00;0.00;;;;;;;;5044564;28;61779;-77
2022/10/15 13:34:53;;;;;;;;;0.00;0.00;;;;;;;;5044077;28;61662;-78
2022/10/15 13:37:22;;;;;;;;;0.00;0.00;;;;;;;;5026707;28;61968;-76
2022/10/15 13:39:49;;;;;;;;;0.00;0.00;;;;;;;;5026725;28;61930;-79
2022/10/15 13:42:21;;;;;;;;;0.33;0.00;;;;;;;;5022286;28;62060;-82
2022/10/15 13:45:03;;;;;;;;;0.00;0.00;;;;;;;;5021032;28;64084;-76
2022/10/15 13:47:31;;;;;;;;;0.00;0.00;;;;;;;;5040015;28;61969;-75
2022/10/15 13:50:14;;;;;;;;;0.00;0.00;;;;;;;;5042543;28;62046;-75
2022/10/15 13:52:42;;;;;;;;;0.67;0.00;;;;;;;;5022876;28;61938;-76
2022/10/15 13:55:15;;;;;;;;;0.00;0.00;;;;;;;;5023510;28;63944;-75
2022/10/15 13:57:43;;;;;;;;;0.00;0.00;;;;;;;;5025831;28;61780;-75
2022/10/15 14:00:18;;;;;;;;;0.00;0.00;;;;;;;;5044164;28;61890;-75
2022/10/15 14:02:43;;;;;;;;;0.00;0.00;;;;;;;;5045634;28;62064;-75
2022/10/15 14:05:15;;;;;;;;;0.00;0.00;;;;;;;;5063605;28;61915;-75
2022/10/15 14:07:40;;;;;;;;;0.00;0.00;;;;;;;;5064554;28;61901;-75
2022/10/15 14:10:07;;;;;;;;;0.00;0.00;;;;;;;;5055377;28;62023;-75
2022/10/15 14:12:32;;;;;;;;;0.00;0.00;;;;;;;;5044434;28;62180;-74
2022/10/15 14:15:17;;;;;;;;;0.00;0.00;;;;;;;;5043492;28;62702;-76
2022/10/15 14:17:48;;;;;;;;;0.00;0.00;;;;;;;;5026199;28;61892;-75
2022/10/15 14:20:18;;;;;;;;;0.00;0.00;;;;;;;;5026036;28;62039;-75
2022/10/15 14:22:47;;;;;;;;;0.00;0.00;;;;;;;;5044091;28;62059;-75
2022/10/15 14:25:19;;;;;;;;;0.00;0.00;;;;;;;;5025271;28;63841;-75
2022/10/15 14:27:45;;;;;;;;;0.00;0.00;;;;;;;;5043845;28;61941;-75
2022/10/15 14:30:19;;;;;;;;;0.00;0.00;;;;;;;;5043308;28;61969;-75
2022/10/15 14:32:46;;;;;;;;;0.00;0.00;;;;;;;;5026369;28;61793;-75
2022/10/15 14:35:30;;;;;;;;;0.00;0.00;;;;;;;;5015218;28;64640;-75
2022/10/15 14:38:03;;;;;;;;;0.00;0.00;;;;;;;;5012509;28;61727;-76
2022/10/15 14:40:29;;;;;;;;;0.00;0.00;;;;;;;;5043771;28;61906;-75
2022/10/15 14:42:54;;;;;;;;;0.00;0.00;;;;;;;;5044033;28;62008;-75
2022/10/15 14:45:25;;;;;;;;;0.00;0.00;;;;;;;;5024966;28;63888;-75
2022/10/15 14:47:55;;;;;;;;;0.00;0.00;;;;;;;;5043922;28;61727;-76
2022/10/15 14:50:23;;;;;;;;;1.00;0.00;;;;;;;;5043201;28;61974;-76
2022/10/15 14:52:50;;;;;;;;;0.00;0.00;;;;;;;;5025860;28;61729;-75